Detall de PIREP

Printer-friendly versionPDF version

[2013/04/22 16:13:00]
Flight IATA:CT2311
Pilot Number:012
Company ICAO:CAT
Aircraft Type:F70/A
PAX:56
Aircraft Registration:PFJ
Departing Airport: LIMC
Destination Airport: LIEA
Alternate Airport:LIEO
Online: VATSIM
Route:VOG UM858 AJO UM194 REVDO
Flight Level:F270
No Slew and time accel
No pause
Crash detect
Detect pilot in Cockpit between each 30 and 45 minutes
16:13 Zero fuel Weight: 67837 Lbs, Fuel Weight: 8494 Lbs
16:13 VATSIM:LIMC 221550Z 15005KT 120V190 9999 FEW020 BKN060 13/08 Q1014 NOSIG
16:13 VATSIM:LIEA 221550Z 33006KT 280V030 9999 FEW030 16/10 Q1013
16:14 VOICE CATALONIAN
16:14 Parking Brakes off
16:19 Take-off
16:19 Take off Weight: 76049 Lbs
16:19 Wind: 159º @ 005 Knots Heading: 168º
16:19 POS N45º 37´ 11´´ E008º 43´ 34´´
16:19 Gear Up: 163 Knots
16:31 TOC
16:31 Fuel Weight: 6744 Lb
16:34 Wind:023º@033 Knots Heading: 184º Ground Speed: 462 Knots Altitude 26988 ft
16:49 Wind:020º@037 Knots Heading: 183º Ground Speed: 468 Knots Altitude 26978 ft
16:52 TOD
16:52 Fuel Weight: 4871 Lb
17:04 Wind:325º@023 Knots Heading: 215º Ground Speed: 266 Knots Altitude 6049 ft
17:05 Flaps:1 at 225 Knots
17:06 Gear Down: 221 Knots
17:06 Flaps:2 at 216 Knots
17:06 Flaps:3 at 187 Knots
17:06 Flaps:4 at 184 Knots
17:08 TouchDown:Rate -416 ft/min Speed: 107 Knots
17:08 VATSIM:LIEA 221650Z 34005KT 300V020 9999 FEW030 15/09 Q1013
17:08 Land
17:08 Wind:338º@006 Knots
17:08 Heading: 203º
17:08 Flight Duration: 00:49
17:08 Landing Weight: 72409 Lbs
17:08 POS N40º 37´ 54´´ E008º 17´ 26´´
17:10 Parking brakes on
17:10 Block to Block Duration: 00:56
17:10 Final Fuel: 4492 Lbls
17:10 Spent Fuel: 4001 Lbls
17:10 Flight Length: 305 NM
17:10 TOD Land Length: 77 NM

Exportar CSV

Powered by Drupal - Modified by Danger4k